sensor_id;sensor_type;location;lat;lon;timestamp;temperature;humidity
40622;DHT22;26324;52.040;11.528;2023-09-07T00:01:25;18.70;68.60
40622;DHT22;26324;52.040;11.528;2023-09-07T00:03:53;18.70;68.70
40622;DHT22;26324;52.040;11.528;2023-09-07T00:06:20;18.60;68.70
40622;DHT22;26324;52.040;11.528;2023-09-07T00:08:48;18.60;68.90
40622;DHT22;26324;52.040;11.528;2023-09-07T00:11:15;18.50;69.20
40622;DHT22;26324;52.040;11.528;2023-09-07T00:13:43;18.50;69.50
40622;DHT22;26324;52.040;11.528;2023-09-07T00:16:10;18.40;69.30
40622;DHT22;26324;52.040;11.528;2023-09-07T00:18:38;18.40;69.00
40622;DHT22;26324;52.040;11.528;2023-09-07T00:21:05;18.40;69.20
40622;DHT22;26324;52.040;11.528;2023-09-07T00:23:33;18.40;69.40
40622;DHT22;26324;52.040;11.528;2023-09-07T00:26:00;18.30;69.70
40622;DHT22;26324;52.040;11.528;2023-09-07T00:28:28;18.30;69.60
40622;DHT22;26324;52.040;11.528;2023-09-07T00:30:56;18.20;69.90
40622;DHT22;26324;52.040;11.528;2023-09-07T00:33:23;18.30;70.10
40622;DHT22;26324;52.040;11.528;2023-09-07T00:35:51;18.30;70.00
40622;DHT22;26324;52.040;11.528;2023-09-07T00:38:18;18.20;70.10
40622;DHT22;26324;52.040;11.528;2023-09-07T00:40:46;18.10;70.10
40622;DHT22;26324;52.040;11.528;2023-09-07T00:43:13;18.00;70.30
40622;DHT22;26324;52.040;11.528;2023-09-07T00:45:40;17.90;70.90
40622;DHT22;26324;52.040;11.528;2023-09-07T00:48:08;17.90;71.30
40622;DHT22;26324;52.040;11.528;2023-09-07T00:50:36;18.00;71.40
40622;DHT22;26324;52.040;11.528;2023-09-07T00:53:03;18.00;70.90
40622;DHT22;26324;52.040;11.528;2023-09-07T00:55:33;18.10;70.50
40622;DHT22;26324;52.040;11.528;2023-09-07T00:58:03;18.10;70.10
40622;DHT22;26324;52.040;11.528;2023-09-07T01:00:31;18.10;70.00
40622;DHT22;26324;52.040;11.528;2023-09-07T01:02:59;18.10;70.20
40622;DHT22;26324;52.040;11.528;2023-09-07T01:05:41;18.00;70.40
40622;DHT22;26324;52.040;11.528;2023-09-07T01:08:17;18.00;71.20
40622;DHT22;26324;52.040;11.528;2023-09-07T01:10:46;17.80;71.70
40622;DHT22;26324;52.040;11.528;2023-09-07T01:13:13;17.70;71.20
40622;DHT22;26324;52.040;11.528;2023-09-07T01:15:41;17.70;71.70
40622;DHT22;26324;52.040;11.528;2023-09-07T01:18:09;17.60;72.20
40622;DHT22;26324;52.040;11.528;2023-09-07T01:20:57;17.70;72.00
40622;DHT22;26324;52.040;11.528;2023-09-07T01:23:25;17.80;72.00
40622;DHT22;26324;52.040;11.528;2023-09-07T01:25:53;17.90;71.90
40622;DHT22;26324;52.040;11.528;2023-09-07T01:28:22;18.00;71.00
40622;DHT22;26324;52.040;11.528;2023-09-07T01:30:51;18.00;70.30
40622;DHT22;26324;52.040;11.528;2023-09-07T01:33:18;18.00;70.30
40622;DHT22;26324;52.040;11.528;2023-09-07T01:35:46;17.90;70.20
40622;DHT22;26324;52.040;11.528;2023-09-07T01:38:14;17.90;70.20
40622;DHT22;26324;52.040;11.528;2023-09-07T01:40:41;17.80;70.40
40622;DHT22;26324;52.040;11.528;2023-09-07T01:43:08;17.70;70.70
40622;DHT22;26324;52.040;11.528;2023-09-07T01:45:36;17.70;71.20
40622;DHT22;26324;52.040;11.528;2023-09-07T01:48:05;17.60;71.30
40622;DHT22;26324;52.040;11.528;2023-09-07T01:50:54;17.60;71.50
40622;DHT22;26324;52.040;11.528;2023-09-07T01:53:22;17.50;71.70
40622;DHT22;26324;52.040;11.528;2023-09-07T01:55:53;17.50;71.70
40622;DHT22;26324;52.040;11.528;2023-09-07T01:58:20;17.40;72.00
40622;DHT22;26324;52.040;11.528;2023-09-07T02:00:48;17.30;72.30
40622;DHT22;26324;52.040;11.528;2023-09-07T02:03:15;17.30;72.40
40622;DHT22;26324;52.040;11.528;2023-09-07T02:05:45;17.30;72.60
40622;DHT22;26324;52.040;11.528;2023-09-07T02:08:13;17.20;72.80
40622;DHT22;26324;52.040;11.528;2023-09-07T02:10:40;17.10;73.30
40622;DHT22;26324;52.040;11.528;2023-09-07T02:13:07;17.00;74.40
40622;DHT22;26324;52.040;11.528;2023-09-07T02:15:38;17.00;74.50
40622;DHT22;26324;52.040;11.528;2023-09-07T02:18:06;17.00;74.10
40622;DHT22;26324;52.040;11.528;2023-09-07T02:20:34;17.10;73.70
40622;DHT22;26324;52.040;11.528;2023-09-07T02:23:02;17.00;73.60
40622;DHT22;26324;52.040;11.528;2023-09-07T02:25:30;17.00;73.60
40622;DHT22;26324;52.040;11.528;2023-09-07T02:27:58;17.00;73.50
40622;DHT22;26324;52.040;11.528;2023-09-07T02:30:25;16.90;73.80
40622;DHT22;26324;52.040;11.528;2023-09-07T02:32:53;16.80;73.90
40622;DHT22;26324;52.040;11.528;2023-09-07T02:35:20;16.80;74.00
40622;DHT22;26324;52.040;11.528;2023-09-07T02:37:48;16.70;73.90
40622;DHT22;26324;52.040;11.528;2023-09-07T02:40:15;16.60;74.40
40622;DHT22;26324;52.040;11.528;2023-09-07T02:42:43;16.50;75.20
40622;DHT22;26324;52.040;11.528;2023-09-07T02:45:11;16.50;75.70
40622;DHT22;26324;52.040;11.528;2023-09-07T02:47:39;16.40;75.80
40622;DHT22;26324;52.040;11.528;2023-09-07T02:50:07;16.30;76.40
40622;DHT22;26324;52.040;11.528;2023-09-07T02:52:34;16.20;76.70
40622;DHT22;26324;52.040;11.528;2023-09-07T02:55:02;16.10;77.10
40622;DHT22;26324;52.040;11.528;2023-09-07T02:57:32;16.10;77.10
40622;DHT22;26324;52.040;11.528;2023-09-07T02:59:59;16.10;77.20
40622;DHT22;26324;52.040;11.528;2023-09-07T03:02:27;16.00;77.20
40622;DHT22;26324;52.040;11.528;2023-09-07T03:04:55;16.10;77.30
40622;DHT22;26324;52.040;11.528;2023-09-07T03:07:26;16.10;77.00
40622;DHT22;26324;52.040;11.528;2023-09-07T03:09:53;16.10;76.80
40622;DHT22;26324;52.040;11.528;2023-09-07T03:12:21;16.10;76.50
40622;DHT22;26324;52.040;11.528;2023-09-07T03:14:48;16.00;77.20
40622;DHT22;26324;52.040;11.528;2023-09-07T03:17:18;16.10;77.10
40622;DHT22;26324;52.040;11.528;2023-09-07T03:19:48;16.10;76.70
40622;DHT22;26324;52.040;11.528;2023-09-07T03:22:16;16.20;76.40
40622;DHT22;26324;52.040;11.528;2023-09-07T03:24:43;16.10;76.50
40622;DHT22;26324;52.040;11.528;2023-09-07T03:27:10;16.10;76.80
40622;DHT22;26324;52.040;11.528;2023-09-07T03:29:38;16.10;76.90
40622;DHT22;26324;52.040;11.528;2023-09-07T03:32:06;16.10;76.70
40622;DHT22;26324;52.040;11.528;2023-09-07T03:34:34;16.10;76.50
40622;DHT22;26324;52.040;11.528;2023-09-07T03:37:01;16.10;76.50
40622;DHT22;26324;52.040;11.528;2023-09-07T03:39:29;16.10;76.30
40622;DHT22;26324;52.040;11.528;2023-09-07T03:41:57;16.00;76.50
40622;DHT22;26324;52.040;11.528;2023-09-07T03:44:24;15.80;76.90
40622;DHT22;26324;52.040;11.528;2023-09-07T03:46:52;15.90;77.20
40622;DHT22;26324;52.040;11.528;2023-09-07T03:49:19;15.80;77.50
40622;DHT22;26324;52.040;11.528;2023-09-07T03:51:47;15.80;77.70
40622;DHT22;26324;52.040;11.528;2023-09-07T03:54:14;15.80;77.30
40622;DHT22;26324;52.040;11.528;2023-09-07T03:56:42;15.90;76.90
40622;DHT22;26324;52.040;11.528;2023-09-07T03:59:09;15.90;76.80
40622;DHT22;26324;52.040;11.528;2023-09-07T04:01:38;15.80;76.80
40622;DHT22;26324;52.040;11.528;2023-09-07T04:04:06;15.80;77.10
40622;DHT22;26324;52.040;11.528;2023-09-07T04:06:33;15.70;77.10
40622;DHT22;26324;52.040;11.528;2023-09-07T04:09:01;15.70;77.50
40622;DHT22;26324;52.040;11.528;2023-09-07T04:11:28;15.60;77.70
40622;DHT22;26324;52.040;11.528;2023-09-07T04:13:56;15.60;77.50
40622;DHT22;26324;52.040;11.528;2023-09-07T04:16:23;15.40;77.40
40622;DHT22;26324;52.040;11.528;2023-09-07T04:18:51;15.30;78.20
40622;DHT22;26324;52.040;11.528;2023-09-07T04:21:18;15.30;78.50
40622;DHT22;26324;52.040;11.528;2023-09-07T04:23:46;15.20;79.50
40622;DHT22;26324;52.040;11.528;2023-09-07T04:26:13;15.20;79.90
40622;DHT22;26324;52.040;11.528;2023-09-07T04:28:41;15.10;80.10
40622;DHT22;26324;52.040;11.528;2023-09-07T04:31:08;15.10;80.00
40622;DHT22;26324;52.040;11.528;2023-09-07T04:33:36;15.10;79.70
40622;DHT22;26324;52.040;11.528;2023-09-07T04:36:21;15.10;79.80
40622;DHT22;26324;52.040;11.528;2023-09-07T04:38:49;15.20;79.70
40622;DHT22;26324;52.040;11.528;2023-09-07T04:41:16;15.10;79.60
40622;DHT22;26324;52.040;11.528;2023-09-07T04:43:44;15.10;79.80
40622;DHT22;26324;52.040;11.528;2023-09-07T04:46:13;15.20;79.90
40622;DHT22;26324;52.040;11.528;2023-09-07T04:48:41;15.20;80.30
40622;DHT22;26324;52.040;11.528;2023-09-07T04:51:09;15.10;80.40
40622;DHT22;26324;52.040;11.528;2023-09-07T04:53:39;15.20;80.70
40622;DHT22;26324;52.040;11.528;2023-09-07T04:56:07;15.30;80.30
40622;DHT22;26324;52.040;11.528;2023-09-07T04:58:36;15.30;79.70
40622;DHT22;26324;52.040;11.528;2023-09-07T05:01:09;15.20;79.50
40622;DHT22;26324;52.040;11.528;2023-09-07T05:03:38;15.20;79.90
40622;DHT22;26324;52.040;11.528;2023-09-07T05:06:08;15.30;79.90
40622;DHT22;26324;52.040;11.528;2023-09-07T05:08:35;15.30;79.90
40622;DHT22;26324;52.040;11.528;2023-09-07T05:11:04;15.30;80.00
40622;DHT22;26324;52.040;11.528;2023-09-07T05:13:33;15.30;79.80
40622;DHT22;26324;52.040;11.528;2023-09-07T05:16:02;15.20;80.30
40622;DHT22;26324;52.040;11.528;2023-09-07T05:18:29;15.20;80.60
40622;DHT22;26324;52.040;11.528;2023-09-07T05:20:58;15.40;80.30
40622;DHT22;26324;52.040;11.528;2023-09-07T05:23:25;15.40;80.30
40622;DHT22;26324;52.040;11.528;2023-09-07T05:25:55;15.40;80.00
40622;DHT22;26324;52.040;11.528;2023-09-07T05:28:25;15.40;79.80
40622;DHT22;26324;52.040;11.528;2023-09-07T05:30:54;15.50;80.30
40622;DHT22;26324;52.040;11.528;2023-09-07T05:33:23;15.60;80.10
40622;DHT22;26324;52.040;11.528;2023-09-07T05:35:51;15.50;80.20
40622;DHT22;26324;52.040;11.528;2023-09-07T05:38:20;15.70;79.80
40622;DHT22;26324;52.040;11.528;2023-09-07T05:40:47;15.70;79.60
40622;DHT22;26324;52.040;11.528;2023-09-07T05:43:17;15.80;79.60
40622;DHT22;26324;52.040;11.528;2023-09-07T05:45:45;15.80;80.00
40622;DHT22;26324;52.040;11.528;2023-09-07T05:48:13;15.90;80.10
40622;DHT22;26324;52.040;11.528;2023-09-07T05:50:44;16.00;80.30
40622;DHT22;26324;52.040;11.528;2023-09-07T05:53:12;16.20;80.20
40622;DHT22;26324;52.040;11.528;2023-09-07T05:55:39;16.30;80.20
40622;DHT22;26324;52.040;11.528;2023-09-07T05:58:08;16.30;80.50
40622;DHT22;26324;52.040;11.528;2023-09-07T06:00:40;16.40;80.40
40622;DHT22;26324;52.040;11.528;2023-09-07T06:03:08;16.60;80.20
40622;DHT22;26324;52.040;11.528;2023-09-07T06:05:37;16.70;79.60
40622;DHT22;26324;52.040;11.528;2023-09-07T06:08:07;16.80;79.50
40622;DHT22;26324;52.040;11.528;2023-09-07T06:10:36;17.00;79.70
40622;DHT22;26324;52.040;11.528;2023-09-07T06:13:04;17.10;80.00
40622;DHT22;26324;52.040;11.528;2023-09-07T06:15:32;17.10;80.20
40622;DHT22;26324;52.040;11.528;2023-09-07T06:18:00;17.10;80.40
40622;DHT22;26324;52.040;11.528;2023-09-07T06:20:28;17.40;80.20
40622;DHT22;26324;52.040;11.528;2023-09-07T06:22:58;17.40;80.20
40622;DHT22;26324;52.040;11.528;2023-09-07T06:25:25;17.70;79.50
40622;DHT22;26324;52.040;11.528;2023-09-07T06:27:54;17.80;79.00
40622;DHT22;26324;52.040;11.528;2023-09-07T06:30:22;18.00;77.60
40622;DHT22;26324;52.040;11.528;2023-09-07T06:32:49;18.10;77.20
40622;DHT22;26324;52.040;11.528;2023-09-07T06:35:18;18.20;77.20
40622;DHT22;26324;52.040;11.528;2023-09-07T06:37:47;18.40;77.00
40622;DHT22;26324;52.040;11.528;2023-09-07T06:40:17;18.50;76.40
40622;DHT22;26324;52.040;11.528;2023-09-07T06:42:48;18.70;76.00
40622;DHT22;26324;52.040;11.528;2023-09-07T06:45:19;18.80;75.80
40622;DHT22;26324;52.040;11.528;2023-09-07T06:47:49;19.00;75.10
40622;DHT22;26324;52.040;11.528;2023-09-07T06:50:20;19.10;74.80
40622;DHT22;26324;52.040;11.528;2023-09-07T06:52:49;19.40;74.10
40622;DHT22;26324;52.040;11.528;2023-09-07T06:55:16;19.40;74.00
40622;DHT22;26324;52.040;11.528;2023-09-07T06:57:45;19.50;73.30
40622;DHT22;26324;52.040;11.528;2023-09-07T07:00:13;19.60;73.30
40622;DHT22;26324;52.040;11.528;2023-09-07T07:02:41;19.90;72.60
40622;DHT22;26324;52.040;11.528;2023-09-07T07:05:10;20.00;72.30
40622;DHT22;26324;52.040;11.528;2023-09-07T07:07:38;20.10;70.90
40622;DHT22;26324;52.040;11.528;2023-09-07T07:10:07;20.20;70.30
40622;DHT22;26324;52.040;11.528;2023-09-07T07:12:38;20.30;69.60
40622;DHT22;26324;52.040;11.528;2023-09-07T07:15:06;20.50;69.40
40622;DHT22;26324;52.040;11.528;2023-09-07T07:17:34;20.60;69.70
40622;DHT22;26324;52.040;11.528;2023-09-07T07:20:04;20.60;68.80
40622;DHT22;26324;52.040;11.528;2023-09-07T07:22:31;20.80;68.50
40622;DHT22;26324;52.040;11.528;2023-09-07T07:25:03;21.00;67.50
40622;DHT22;26324;52.040;11.528;2023-09-07T07:27:33;21.00;68.30
40622;DHT22;26324;52.040;11.528;2023-09-07T07:30:01;21.00;67.30
40622;DHT22;26324;52.040;11.528;2023-09-07T07:32:29;21.10;68.10
40622;DHT22;26324;52.040;11.528;2023-09-07T07:34:57;21.20;67.50
40622;DHT22;26324;52.040;11.528;2023-09-07T07:37:25;21.40;66.10
40622;DHT22;26324;52.040;11.528;2023-09-07T07:39:52;21.50;65.20
40622;DHT22;26324;52.040;11.528;2023-09-07T07:42:20;21.60;65.30
40622;DHT22;26324;52.040;11.528;2023-09-07T07:44:48;21.60;65.70
40622;DHT22;26324;52.040;11.528;2023-09-07T07:47:16;21.70;65.40
40622;DHT22;26324;52.040;11.528;2023-09-07T07:49:44;21.70;65.10
40622;DHT22;26324;52.040;11.528;2023-09-07T07:52:12;21.70;65.90
40622;DHT22;26324;52.040;11.528;2023-09-07T07:54:40;21.60;65.60
40622;DHT22;26324;52.040;11.528;2023-09-07T07:57:09;21.90;66.20
40622;DHT22;26324;52.040;11.528;2023-09-07T07:59:38;22.00;66.10
40622;DHT22;26324;52.040;11.528;2023-09-07T08:02:06;22.10;65.40
40622;DHT22;26324;52.040;11.528;2023-09-07T08:04:34;22.10;65.50
40622;DHT22;26324;52.040;11.528;2023-09-07T08:07:04;22.30;65.70
40622;DHT22;26324;52.040;11.528;2023-09-07T08:09:34;22.40;65.10
40622;DHT22;26324;52.040;11.528;2023-09-07T08:12:03;22.40;64.10
40622;DHT22;26324;52.040;11.528;2023-09-07T08:14:32;22.60;63.20
40622;DHT22;26324;52.040;11.528;2023-09-07T08:17:02;22.80;64.70
40622;DHT22;26324;52.040;11.528;2023-09-07T08:19:30;22.90;64.10
40622;DHT22;26324;52.040;11.528;2023-09-07T08:22:00;22.90;64.20
40622;DHT22;26324;52.040;11.528;2023-09-07T08:24:30;22.90;62.70
40622;DHT22;26324;52.040;11.528;2023-09-07T08:26:58;23.00;63.10
40622;DHT22;26324;52.040;11.528;2023-09-07T08:29:28;23.10;61.80
40622;DHT22;26324;52.040;11.528;2023-09-07T08:31:59;23.30;61.70
40622;DHT22;26324;52.040;11.528;2023-09-07T08:34:31;23.30;61.90
40622;DHT22;26324;52.040;11.528;2023-09-07T08:36:58;23.40;62.20
40622;DHT22;26324;52.040;11.528;2023-09-07T08:39:29;23.50;60.70
40622;DHT22;26324;52.040;11.528;2023-09-07T08:41:58;23.60;60.10
40622;DHT22;26324;52.040;11.528;2023-09-07T08:44:29;24.00;60.90
40622;DHT22;26324;52.040;11.528;2023-09-07T08:46:59;24.10;59.20
40622;DHT22;26324;52.040;11.528;2023-09-07T08:49:28;24.20;59.10
40622;DHT22;26324;52.040;11.528;2023-09-07T08:51:59;24.00;58.70
40622;DHT22;26324;52.040;11.528;2023-09-07T08:54:27;24.10;59.00
40622;DHT22;26324;52.040;11.528;2023-09-07T08:56:57;24.20;58.80
40622;DHT22;26324;52.040;11.528;2023-09-07T08:59:25;24.50;58.20
40622;DHT22;26324;52.040;11.528;2023-09-07T09:01:56;24.60;58.40
40622;DHT22;26324;52.040;11.528;2023-09-07T09:04:27;24.60;57.30
40622;DHT22;26324;52.040;11.528;2023-09-07T09:06:56;24.80;56.60
40622;DHT22;26324;52.040;11.528;2023-09-07T09:09:26;24.90;55.20
40622;DHT22;26324;52.040;11.528;2023-09-07T09:11:53;25.10;56.30
40622;DHT22;26324;52.040;11.528;2023-09-07T09:14:21;25.30;55.90
40622;DHT22;26324;52.040;11.528;2023-09-07T09:16:50;25.40;55.30
40622;DHT22;26324;52.040;11.528;2023-09-07T09:19:18;25.40;55.50
40622;DHT22;26324;52.040;11.528;2023-09-07T09:21:46;25.50;56.00
40622;DHT22;26324;52.040;11.528;2023-09-07T09:24:14;25.80;56.40
40622;DHT22;26324;52.040;11.528;2023-09-07T09:26:43;26.00;55.20
40622;DHT22;26324;52.040;11.528;2023-09-07T09:29:11;26.10;54.00
40622;DHT22;26324;52.040;11.528;2023-09-07T09:31:39;26.20;54.70
40622;DHT22;26324;52.040;11.528;2023-09-07T09:34:07;26.40;53.70
40622;DHT22;26324;52.040;11.528;2023-09-07T09:36:35;26.40;53.00
40622;DHT22;26324;52.040;11.528;2023-09-07T09:39:04;26.60;53.80
40622;DHT22;26324;52.040;11.528;2023-09-07T09:41:32;26.80;52.90
40622;DHT22;26324;52.040;11.528;2023-09-07T09:44:03;26.80;52.20
40622;DHT22;26324;52.040;11.528;2023-09-07T09:46:32;26.70;50.70
40622;DHT22;26324;52.040;11.528;2023-09-07T09:49:00;26.90;51.60
40622;DHT22;26324;52.040;11.528;2023-09-07T09:51:30;27.00;49.80
40622;DHT22;26324;52.040;11.528;2023-09-07T09:54:00;27.10;51.60
40622;DHT22;26324;52.040;11.528;2023-09-07T09:56:29;27.30;50.30
40622;DHT22;26324;52.040;11.528;2023-09-07T09:58:57;27.30;50.00
40622;DHT22;26324;52.040;11.528;2023-09-07T10:01:24;27.30;49.80
40622;DHT22;26324;52.040;11.528;2023-09-07T10:03:53;27.10;50.90
40622;DHT22;26324;52.040;11.528;2023-09-07T10:06:28;27.20;49.30
40622;DHT22;26324;52.040;11.528;2023-09-07T10:09:03;27.20;48.40
40622;DHT22;26324;52.040;11.528;2023-09-07T10:11:35;27.50;50.70
40622;DHT22;26324;52.040;11.528;2023-09-07T10:14:06;27.80;49.10
40622;DHT22;26324;52.040;11.528;2023-09-07T10:16:43;28.00;46.90
40622;DHT22;26324;52.040;11.528;2023-09-07T10:21:45;28.30;45.60
40622;DHT22;26324;52.040;11.528;2023-09-07T10:24:39;28.20;47.10
40622;DHT22;26324;52.040;11.528;2023-09-07T10:27:09;28.40;45.90
40622;DHT22;26324;52.040;11.528;2023-09-07T10:30:00;28.50;46.90
40622;DHT22;26324;52.040;11.528;2023-09-07T10:32:40;28.80;46.40
40622;DHT22;26324;52.040;11.528;2023-09-07T10:35:16;29.10;44.50
40622;DHT22;26324;52.040;11.528;2023-09-07T10:37:45;29.30;44.80
40622;DHT22;26324;52.040;11.528;2023-09-07T10:40:20;29.40;46.50
40622;DHT22;26324;52.040;11.528;2023-09-07T10:42:49;29.50;44.20
40622;DHT22;26324;52.040;11.528;2023-09-07T10:45:16;29.70;44.00
40622;DHT22;26324;52.040;11.528;2023-09-07T10:47:45;29.80;42.40
40622;DHT22;26324;52.040;11.528;2023-09-07T10:50:13;29.60;43.00
40622;DHT22;26324;52.040;11.528;2023-09-07T10:52:42;29.80;43.30
40622;DHT22;26324;52.040;11.528;2023-09-07T10:55:10;29.90;41.30
40622;DHT22;26324;52.040;11.528;2023-09-07T10:57:44;30.00;41.60
40622;DHT22;26324;52.040;11.528;2023-09-07T11:00:13;29.90;42.50
40622;DHT22;26324;52.040;11.528;2023-09-07T11:02:42;29.80;41.80
40622;DHT22;26324;52.040;11.528;2023-09-07T11:05:10;29.90;41.00
40622;DHT22;26324;52.040;11.528;2023-09-07T11:07:37;29.90;42.90
40622;DHT22;26324;52.040;11.528;2023-09-07T11:10:07;30.00;41.90
40622;DHT22;26324;52.040;11.528;2023-09-07T11:12:39;29.60;41.80
40622;DHT22;26324;52.040;11.528;2023-09-07T11:15:11;29.70;42.70
40622;DHT22;26324;52.040;11.528;2023-09-07T11:17:39;30.00;41.10
40622;DHT22;26324;52.040;11.528;2023-09-07T11:20:07;30.00;38.30
40622;DHT22;26324;52.040;11.528;2023-09-07T11:22:36;30.10;39.00
40622;DHT22;26324;52.040;11.528;2023-09-07T11:25:25;30.40;40.70
40622;DHT22;26324;52.040;11.528;2023-09-07T11:27:52;30.40;38.70
40622;DHT22;26324;52.040;11.528;2023-09-07T11:30:22;30.50;39.20
40622;DHT22;26324;52.040;11.528;2023-09-07T11:33:06;30.60;38.60
40622;DHT22;26324;52.040;11.528;2023-09-07T11:35:34;30.80;40.90
40622;DHT22;26324;52.040;11.528;2023-09-07T11:38:03;31.00;41.30
40622;DHT22;26324;52.040;11.528;2023-09-07T11:40:34;31.00;39.60
40622;DHT22;26324;52.040;11.528;2023-09-07T11:43:02;30.90;39.80
40622;DHT22;26324;52.040;11.528;2023-09-07T11:45:30;30.60;39.10
40622;DHT22;26324;52.040;11.528;2023-09-07T11:47:59;30.80;38.70
40622;DHT22;26324;52.040;11.528;2023-09-07T11:50:27;30.90;39.70
40622;DHT22;26324;52.040;11.528;2023-09-07T11:52:57;30.90;38.60
40622;DHT22;26324;52.040;11.528;2023-09-07T11:55:25;31.00;38.10
40622;DHT22;26324;52.040;11.528;2023-09-07T11:57:53;30.90;38.40
40622;DHT22;26324;52.040;11.528;2023-09-07T12:00:20;31.10;40.00
40622;DHT22;26324;52.040;11.528;2023-09-07T12:02:49;31.30;37.10
40622;DHT22;26324;52.040;11.528;2023-09-07T12:05:17;31.10;37.10
40622;DHT22;26324;52.040;11.528;2023-09-07T12:07:46;31.10;37.30
40622;DHT22;26324;52.040;11.528;2023-09-07T12:10:14;31.10;36.20
40622;DHT22;26324;52.040;11.528;2023-09-07T12:12:42;31.20;35.20
40622;DHT22;26324;52.040;11.528;2023-09-07T12:15:11;31.30;37.60
40622;DHT22;26324;52.040;11.528;2023-09-07T12:17:41;31.30;37.40
40622;DHT22;26324;52.040;11.528;2023-09-07T12:20:09;31.50;36.80
40622;DHT22;26324;52.040;11.528;2023-09-07T12:22:38;31.40;35.50
40622;DHT22;26324;52.040;11.528;2023-09-07T12:25:06;31.70;36.60
40622;DHT22;26324;52.040;11.528;2023-09-07T12:27:46;32.00;35.50
40622;DHT22;26324;52.040;11.528;2023-09-07T12:30:20;32.10;33.80
40622;DHT22;26324;52.040;11.528;2023-09-07T12:32:51;32.30;36.60
40622;DHT22;26324;52.040;11.528;2023-09-07T12:35:19;32.00;34.70
40622;DHT22;26324;52.040;11.528;2023-09-07T12:37:47;32.40;35.80
40622;DHT22;26324;52.040;11.528;2023-09-07T12:40:15;32.50;34.30
40622;DHT22;26324;52.040;11.528;2023-09-07T12:42:44;32.60;32.50
40622;DHT22;26324;52.040;11.528;2023-09-07T12:45:12;32.60;33.20
40622;DHT22;26324;52.040;11.528;2023-09-07T12:47:42;32.80;33.00
40622;DHT22;26324;52.040;11.528;2023-09-07T12:50:09;32.90;32.00
40622;DHT22;26324;52.040;11.528;2023-09-07T12:52:37;33.20;32.40
40622;DHT22;26324;52.040;11.528;2023-09-07T12:55:06;33.20;33.80
40622;DHT22;26324;52.040;11.528;2023-09-07T12:57:34;33.10;32.40
40622;DHT22;26324;52.040;11.528;2023-09-07T13:00:06;33.50;32.10
40622;DHT22;26324;52.040;11.528;2023-09-07T13:02:35;33.40;31.70
40622;DHT22;26324;52.040;11.528;2023-09-07T13:05:02;33.40;31.80
40622;DHT22;26324;52.040;11.528;2023-09-07T13:07:33;33.10;30.30
40622;DHT22;26324;52.040;11.528;2023-09-07T13:10:02;33.00;31.70
40622;DHT22;26324;52.040;11.528;2023-09-07T13:12:32;33.60;32.30
40622;DHT22;26324;52.040;11.528;2023-09-07T13:14:59;34.30;31.10
40622;DHT22;26324;52.040;11.528;2023-09-07T13:17:27;35.00;31.40
40622;DHT22;26324;52.040;11.528;2023-09-07T13:19:54;35.40;30.50
40622;DHT22;26324;52.040;11.528;2023-09-07T13:22:22;36.00;30.70
40622;DHT22;26324;52.040;11.528;2023-09-07T13:24:50;36.70;29.40
40622;DHT22;26324;52.040;11.528;2023-09-07T13:27:17;37.40;30.30
40622;DHT22;26324;52.040;11.528;2023-09-07T13:29:45;38.00;27.60
40622;DHT22;26324;52.040;11.528;2023-09-07T13:32:12;38.20;26.00
40622;DHT22;26324;52.040;11.528;2023-09-07T13:34:40;38.60;26.10
40622;DHT22;26324;52.040;11.528;2023-09-07T13:37:07;39.10;25.80
40622;DHT22;26324;52.040;11.528;2023-09-07T13:39:34;39.60;25.10
40622;DHT22;26324;52.040;11.528;2023-09-07T13:42:02;39.80;24.70
40622;DHT22;26324;52.040;11.528;2023-09-07T13:44:29;40.30;25.30
40622;DHT22;26324;52.040;11.528;2023-09-07T13:46:57;40.60;24.30
40622;DHT22;26324;52.040;11.528;2023-09-07T13:49:24;40.90;22.50
40622;DHT22;26324;52.040;11.528;2023-09-07T13:51:52;40.80;23.60
40622;DHT22;26324;52.040;11.528;2023-09-07T13:54:19;41.30;22.00
40622;DHT22;26324;52.040;11.528;2023-09-07T13:56:48;41.80;22.30
40622;DHT22;26324;52.040;11.528;2023-09-07T13:59:15;42.20;20.70
40622;DHT22;26324;52.040;11.528;2023-09-07T14:01:42;42.30;20.70
40622;DHT22;26324;52.040;11.528;2023-09-07T14:04:10;42.80;20.70
40622;DHT22;26324;52.040;11.528;2023-09-07T14:06:37;42.10;20.30
40622;DHT22;26324;52.040;11.528;2023-09-07T14:09:04;42.40;20.50
40622;DHT22;26324;52.040;11.528;2023-09-07T14:11:34;42.60;19.80
40622;DHT22;26324;52.040;11.528;2023-09-07T14:14:01;42.00;20.00
40622;DHT22;26324;52.040;11.528;2023-09-07T14:16:28;41.70;20.80
40622;DHT22;26324;52.040;11.528;2023-09-07T14:18:56;41.90;20.10
40622;DHT22;26324;52.040;11.528;2023-09-07T14:21:23;41.20;20.10
40622;DHT22;26324;52.040;11.528;2023-09-07T14:23:51;41.40;20.40
40622;DHT22;26324;52.040;11.528;2023-09-07T14:26:18;41.70;20.60
40622;DHT22;26324;52.040;11.528;2023-09-07T14:28:46;41.50;20.20
40622;DHT22;26324;52.040;11.528;2023-09-07T14:31:13;41.70;20.30
40622;DHT22;26324;52.040;11.528;2023-09-07T14:33:40;42.20;20.80
40622;DHT22;26324;52.040;11.528;2023-09-07T14:36:09;42.50;20.10
40622;DHT22;26324;52.040;11.528;2023-09-07T14:38:37;42.70;19.20
40622;DHT22;26324;52.040;11.528;2023-09-07T14:41:12;41.90;19.50
40622;DHT22;26324;52.040;11.528;2023-09-07T14:43:47;41.10;20.20
40622;DHT22;26324;52.040;11.528;2023-09-07T14:46:15;41.60;20.40
40622;DHT22;26324;52.040;11.528;2023-09-07T14:48:44;42.20;19.90
40622;DHT22;26324;52.040;11.528;2023-09-07T14:51:11;43.00;19.20
40622;DHT22;26324;52.040;11.528;2023-09-07T14:53:39;43.70;19.30
40622;DHT22;26324;52.040;11.528;2023-09-07T14:56:06;44.20;18.80
40622;DHT22;26324;52.040;11.528;2023-09-07T14:58:34;44.60;18.30
40622;DHT22;26324;52.040;11.528;2023-09-07T15:01:02;44.60;18.00
40622;DHT22;26324;52.040;11.528;2023-09-07T15:03:31;44.20;18.80
40622;DHT22;26324;52.040;11.528;2023-09-07T15:05:58;43.40;18.30
40622;DHT22;26324;52.040;11.528;2023-09-07T15:08:25;42.90;18.60
40622;DHT22;26324;52.040;11.528;2023-09-07T15:10:53;42.20;19.90
40622;DHT22;26324;52.040;11.528;2023-09-07T15:13:20;42.50;20.50
40622;DHT22;26324;52.040;11.528;2023-09-07T15:15:48;41.90;20.60
40622;DHT22;26324;52.040;11.528;2023-09-07T15:18:16;42.50;20.30
40622;DHT22;26324;52.040;11.528;2023-09-07T15:20:43;42.60;20.10
40622;DHT22;26324;52.040;11.528;2023-09-07T15:23:11;42.30;20.50
40622;DHT22;26324;52.040;11.528;2023-09-07T15:25:38;42.70;20.40
40622;DHT22;26324;52.040;11.528;2023-09-07T15:28:06;43.10;20.40